Time;durP1;ratioP1;P1;durP2;ratioP2;P2;SDS_P1;SDS_P2;PMS_P1;PMS_P2;Temp;Humidity;BMP_temperature;BMP_pressure;BME280_temperature;BME280_humidity;BME280_pressure;Samples;Min_cycle;Max_cycle;Signal;HPM_P1;HPM_P2
2023/06/11 00:02:08;;;;;;;4.27;4.13;;;;;;;;;;4956212;28;20778;-69
2023/06/11 00:04:35;;;;;;;4.63;4.20;;;;;;;;;;4955979;28;20497;-69
2023/06/11 00:07:02;;;;;;;3.50;3.40;;;;;;;;;;4955813;28;20419;-68
2023/06/11 00:09:29;;;;;;;4.07;3.97;;;;;;;;;;4956153;28;20435;-69
2023/06/11 00:11:55;;;;;;;4.80;4.60;;;;;;;;;;4956086;28;20454;-68
2023/06/11 00:14:23;;;;;;;5.87;4.87;;;;;;;;;;4955780;28;20449;-68
2023/06/11 00:16:49;;;;;;;4.87;4.43;;;;;;;;;;4955601;28;20430;-68
2023/06/11 00:19:17;;;;;;;4.23;4.03;;;;;;;;;;4955716;28;20447;-68
2023/06/11 00:21:46;;;;;;;4.40;4.10;;;;;;;;;;4955588;28;20470;-68
2023/06/11 00:24:13;;;;;;;4.47;4.27;;;;;;;;;;4955850;28;20477;-68
2023/06/11 00:26:40;;;;;;;4.40;4.30;;;;;;;;;;4955564;28;20451;-68
2023/06/11 00:29:06;;;;;;;4.90;4.77;;;;;;;;;;4955430;28;20506;-69
2023/06/11 00:31:32;;;;;;;4.37;4.27;;;;;;;;;;4955532;28;20429;-70
2023/06/11 00:33:58;;;;;;;4.73;4.23;;;;;;;;;;4955574;28;20419;-68
2023/06/11 00:36:26;;;;;;;5.03;4.70;;;;;;;;;;4956113;28;20430;-70
2023/06/11 00:38:52;;;;;;;4.93;4.63;;;;;;;;;;4955611;28;20419;-69
2023/06/11 00:41:18;;;;;;;4.60;4.40;;;;;;;;;;4955310;28;20482;-68
2023/06/11 00:43:44;;;;;;;5.63;5.33;;;;;;;;;;4955533;28;20514;-69
2023/06/11 00:46:10;;;;;;;5.70;5.50;;;;;;;;;;4955102;28;20486;-68
2023/06/11 00:48:37;;;;;;;4.67;4.33;;;;;;;;;;4955064;28;20471;-68
2023/06/11 00:51:03;;;;;;;4.70;4.50;;;;;;;;;;4955180;28;20481;-68
2023/06/11 00:53:29;;;;;;;5.13;4.93;;;;;;;;;;4955451;28;20446;-68
2023/06/11 00:55:55;;;;;;;5.13;4.93;;;;;;;;;;4955320;28;20844;-68
2023/06/11 00:58:22;;;;;;;4.60;4.50;;;;;;;;;;4955048;28;20415;-68
2023/06/11 01:00:49;;;;;;;5.33;5.03;;;;;;;;;;4955194;28;20477;-68
2023/06/11 01:03:17;;;;;;;4.57;4.47;;;;;;;;;;4955199;28;20419;-68
2023/06/11 01:05:47;;;;;;;5.40;5.10;;;;;;;;;;4955314;28;20427;-68
2023/06/11 01:08:16;;;;;;;4.23;4.00;;;;;;;;;;4955234;28;20411;-68
2023/06/11 01:10:42;;;;;;;5.17;4.70;;;;;;;;;;4954540;28;20888;-68
2023/06/11 01:13:08;;;;;;;4.10;4.00;;;;;;;;;;4955663;28;20441;-68
2023/06/11 01:15:34;;;;;;;4.53;4.33;;;;;;;;;;4954742;28;20423;-68
2023/06/11 01:18:07;;;;;;;4.20;4.10;;;;;;;;;;4955640;28;20853;-68
2023/06/11 01:20:51;;;;;;;4.53;4.43;;;;;;;;;;4954666;28;20464;-68
2023/06/11 01:23:21;;;;;;;4.40;4.20;;;;;;;;;;4954734;28;20419;-68
2023/06/11 01:26:03;;;;;;;5.13;4.93;;;;;;;;;;4955021;28;20399;-68
2023/06/11 01:28:31;;;;;;;4.67;4.37;;;;;;;;;;4954794;28;20454;-68
2023/06/11 01:31:00;;;;;;;4.60;4.30;;;;;;;;;;4954711;28;20418;-68
2023/06/11 01:33:27;;;;;;;4.37;4.27;;;;;;;;;;4955016;28;20450;-68
2023/06/11 01:35:57;;;;;;;4.13;4.00;;;;;;;;;;4954915;28;20431;-68
2023/06/11 01:38:25;;;;;;;4.90;4.03;;;;;;;;;;4955052;28;20490;-68
2023/06/11 01:40:51;;;;;;;3.80;3.70;;;;;;;;;;4954826;28;20485;-68
2023/06/11 01:43:17;;;;;;;4.40;4.30;;;;;;;;;;4954890;28;20884;-68
2023/06/11 01:45:43;;;;;;;3.33;3.33;;;;;;;;;;4955343;28;20423;-68
2023/06/11 01:51:14;;;;;;;4.57;4.37;;;;;;;;;;4954376;29;20501;-68
2023/06/11 01:53:43;;;;;;;5.30;4.90;;;;;;;;;;4954793;28;20527;-68
2023/06/11 01:56:09;;;;;;;4.93;4.83;;;;;;;;;;4969333;28;20435;-68
2023/06/11 01:58:37;;;;;;;4.67;4.47;;;;;;;;;;4954472;28;20775;-68
2023/06/11 02:01:03;;;;;;;5.30;5.10;;;;;;;;;;4954291;28;21020;-68
2023/06/11 02:03:29;;;;;;;5.57;5.37;;;;;;;;;;4954710;28;20510;-68
2023/06/11 02:05:55;;;;;;;4.70;4.60;;;;;;;;;;4954688;28;20427;-68
2023/06/11 02:08:21;;;;;;;5.90;5.60;;;;;;;;;;4954885;28;20859;-68
2023/06/11 02:10:47;;;;;;;5.00;4.80;;;;;;;;;;4954666;28;20517;-68
2023/06/11 02:13:13;;;;;;;5.60;5.40;;;;;;;;;;4954694;28;20470;-68
2023/06/11 02:15:39;;;;;;;5.03;4.83;;;;;;;;;;4954300;28;20459;-68
2023/06/11 02:18:05;;;;;;;5.30;5.00;;;;;;;;;;4954370;28;20510;-69
2023/06/11 02:20:31;;;;;;;5.00;4.70;;;;;;;;;;4954136;28;20817;-68
2023/06/11 02:22:57;;;;;;;4.33;4.13;;;;;;;;;;4956571;28;20923;-68
2023/06/11 02:25:23;;;;;;;4.87;4.67;;;;;;;;;;4958022;28;20414;-68
2023/06/11 02:27:50;;;;;;;4.80;4.40;;;;;;;;;;4972577;28;20978;-68
2023/06/11 02:30:16;;;;;;;5.20;4.80;;;;;;;;;;4958113;28;20462;-68
2023/06/11 02:32:43;;;;;;;4.87;4.70;;;;;;;;;;4958119;28;20419;-68
2023/06/11 02:35:09;;;;;;;5.43;5.03;;;;;;;;;;4957896;28;20486;-68
2023/06/11 02:37:35;;;;;;;4.57;4.47;;;;;;;;;;4957796;28;20458;-68
2023/06/11 02:40:01;;;;;;;4.90;4.70;;;;;;;;;;4957403;28;20423;-68
2023/06/11 02:42:27;;;;;;;4.73;4.60;;;;;;;;;;4957924;28;20522;-68
2023/06/11 02:44:53;;;;;;;4.30;4.10;;;;;;;;;;4958001;28;20418;-68
2023/06/11 02:47:19;;;;;;;4.80;4.50;;;;;;;;;;4957317;28;20768;-68
2023/06/11 02:49:45;;;;;;;4.40;4.30;;;;;;;;;;4957406;28;20426;-68
2023/06/11 02:52:11;;;;;;;4.70;4.50;;;;;;;;;;4957157;28;20474;-68
2023/06/11 02:54:37;;;;;;;3.80;3.70;;;;;;;;;;4957349;28;20489;-67
2023/06/11 02:57:03;;;;;;;4.33;4.23;;;;;;;;;;4957443;28;20934;-68
2023/06/11 02:59:28;;;;;;;4.50;4.33;;;;;;;;;;4957434;28;20458;-68
2023/06/11 03:01:55;;;;;;;6.27;4.57;;;;;;;;;;4972322;28;20526;-68
2023/06/11 03:04:21;;;;;;;4.20;4.10;;;;;;;;;;4957338;28;20423;-68
2023/06/11 03:06:47;;;;;;;5.23;4.90;;;;;;;;;;4971878;28;20438;-68
2023/06/11 03:09:13;;;;;;;4.13;4.03;;;;;;;;;;4957508;28;20410;-68
2023/06/11 03:11:39;;;;;;;4.80;4.70;;;;;;;;;;4957057;28;20533;-68
2023/06/11 03:14:05;;;;;;;4.40;4.20;;;;;;;;;;4956829;28;20938;-68
2023/06/11 03:16:32;;;;;;;5.40;5.20;;;;;;;;;;4957340;28;20510;-68
2023/06/11 03:18:58;;;;;;;3.90;3.80;;;;;;;;;;4956888;28;20525;-68
2023/06/11 03:21:24;;;;;;;4.70;4.50;;;;;;;;;;4956716;28;20931;-67
2023/06/11 03:23:50;;;;;;;4.50;4.40;;;;;;;;;;4957142;28;20426;-68
2023/06/11 03:26:16;;;;;;;4.53;4.10;;;;;;;;;;4956678;28;20497;-68
2023/06/11 03:28:42;;;;;;;5.70;5.40;;;;;;;;;;4957171;28;20433;-68
2023/06/11 03:31:08;;;;;;;5.10;4.83;;;;;;;;;;4956843;28;20422;-68
2023/06/11 03:33:34;;;;;;;5.00;4.80;;;;;;;;;;4955917;28;20478;-68
2023/06/11 03:36:00;;;;;;;4.83;4.73;;;;;;;;;;4956555;28;20813;-68
2023/06/11 03:38:26;;;;;;;4.97;4.77;;;;;;;;;;4956712;28;20431;-68
2023/06/11 03:40:52;;;;;;;4.40;4.30;;;;;;;;;;4956602;28;20497;-68
2023/06/11 03:43:18;;;;;;;3.80;3.70;;;;;;;;;;4957095;28;20522;-68
2023/06/11 03:45:44;;;;;;;4.20;4.10;;;;;;;;;;4956316;28;20411;-68
2023/06/11 03:48:10;;;;;;;3.63;3.53;;;;;;;;;;4956561;28;20434;-68
2023/06/11 03:50:36;;;;;;;4.17;3.97;;;;;;;;;;4956329;28;20946;-68
2023/06/11 03:53:02;;;;;;;4.70;4.40;;;;;;;;;;4956496;28;20423;-68
2023/06/11 03:55:29;;;;;;;5.60;5.10;;;;;;;;;;4956492;28;20469;-68
2023/06/11 03:57:56;;;;;;;4.80;4.67;;;;;;;;;;4956965;28;20458;-68
2023/06/11 04:00:22;;;;;;;4.63;4.53;;;;;;;;;;4956203;28;20517;-68
2023/06/11 04:02:48;;;;;;;5.07;4.77;;;;;;;;;;4956017;28;20442;-68
2023/06/11 04:05:14;;;;;;;4.33;4.13;;;;;;;;;;4956462;28;20505;-68
2023/06/11 04:07:40;;;;;;;6.10;4.00;;;;;;;;;;4956103;28;20458;-68
2023/06/11 04:10:09;;;;;;;4.77;4.57;;;;;;;;;;4955871;28;20477;-69
2023/06/11 04:12:35;;;;;;;4.30;4.00;;;;;;;;;;4956094;28;20427;-68
2023/06/11 04:15:04;;;;;;;3.90;3.83;;;;;;;;;;4955976;28;20477;-68
2023/06/11 04:17:30;;;;;;;4.80;4.70;;;;;;;;;;4955622;28;20430;-68
2023/06/11 04:19:56;;;;;;;4.17;4.00;;;;;;;;;;4955815;28;20422;-69
2023/06/11 04:22:22;;;;;;;4.73;4.43;;;;;;;;;;4956031;28;20462;-68
2023/06/11 04:24:48;;;;;;;4.50;4.20;;;;;;;;;;4955726;28;20418;-68
2023/06/11 04:27:14;;;;;;;4.87;4.67;;;;;;;;;;4956249;28;20905;-68
2023/06/11 04:29:40;;;;;;;4.67;4.47;;;;;;;;;;4955750;28;20415;-68
2023/06/11 04:32:07;;;;;;;4.87;4.57;;;;;;;;;;4955355;28;20932;-68
2023/06/11 04:34:35;;;;;;;4.67;4.57;;;;;;;;;;4954187;28;20882;-68
2023/06/11 04:37:01;;;;;;;5.43;5.13;;;;;;;;;;4955618;28;20430;-68
2023/06/11 04:39:27;;;;;;;5.97;5.47;;;;;;;;;;4955586;28;20456;-68
2023/06/11 04:41:53;;;;;;;5.30;5.03;;;;;;;;;;4955198;28;20478;-68
2023/06/11 04:44:20;;;;;;;14.10;5.53;;;;;;;;;;4955260;28;20427;-67
2023/06/11 04:46:47;;;;;;;5.20;4.70;;;;;;;;;;4954555;28;20454;-68
2023/06/11 04:49:20;;;;;;;3.80;3.70;;;;;;;;;;4955435;28;20454;-68
2023/06/11 04:51:48;;;;;;;5.00;4.67;;;;;;;;;;4955234;28;20466;-68
2023/06/11 04:54:17;;;;;;;4.67;4.47;;;;;;;;;;4955032;28;20415;-68
2023/06/11 04:56:43;;;;;;;4.00;3.90;;;;;;;;;;4969821;28;20423;-68
2023/06/11 04:59:09;;;;;;;4.67;4.53;;;;;;;;;;4955338;28;20431;-68
2023/06/11 05:01:37;;;;;;;4.77;4.47;;;;;;;;;;4970384;28;20478;-68
2023/06/11 05:04:03;;;;;;;5.10;5.00;;;;;;;;;;4955271;28;20782;-68
2023/06/11 05:06:30;;;;;;;4.30;4.10;;;;;;;;;;4955178;28;20430;-68
2023/06/11 05:08:56;;;;;;;4.60;4.40;;;;;;;;;;4954981;28;20613;-68
2023/06/11 05:11:22;;;;;;;4.83;4.73;;;;;;;;;;4955226;28;20467;-68
2023/06/11 05:13:48;;;;;;;4.43;4.23;;;;;;;;;;4969755;28;20792;-68
2023/06/11 05:16:14;;;;;;;4.53;4.23;;;;;;;;;;4955334;28;20525;-68
2023/06/11 05:18:40;;;;;;;12.67;4.77;;;;;;;;;;4955115;28;20502;-68
2023/06/11 05:21:06;;;;;;;4.83;4.50;;;;;;;;;;4954774;28;20970;-68
2023/06/11 05:23:33;;;;;;;5.33;4.93;;;;;;;;;;4955103;28;20457;-68
2023/06/11 05:26:12;;;;;;;4.30;4.17;;;;;;;;;;4954996;28;20419;-68
2023/06/11 05:28:38;;;;;;;4.57;4.20;;;;;;;;;;4955037;28;20407;-68
2023/06/11 05:31:06;;;;;;;5.70;5.30;;;;;;;;;;4954790;28;20451;-68
2023/06/11 05:33:32;;;;;;;5.70;5.40;;;;;;;;;;4954694;28;20457;-68
2023/06/11 05:35:58;;;;;;;5.27;4.97;;;;;;;;;;4954712;28;20429;-68
2023/06/11 05:38:24;;;;;;;4.87;4.63;;;;;;;;;;4955017;28;20810;-68
2023/06/11 05:40:50;;;;;;;5.83;5.37;;;;;;;;;;4954800;28;20878;-68
2023/06/11 05:43:16;;;;;;;5.33;4.93;;;;;;;;;;4954613;28;20427;-68
2023/06/11 05:45:49;;;;;;;4.60;4.40;;;;;;;;;;4953407;29;20519;-68
2023/06/11 05:48:16;;;;;;;6.30;5.10;;;;;;;;;;4954726;28;20427;-68
2023/06/11 05:50:42;;;;;;;4.23;4.13;;;;;;;;;;4954401;28;20750;-68
2023/06/11 05:53:09;;;;;;;5.30;5.00;;;;;;;;;;4955033;28;20422;-69
2023/06/11 05:55:35;;;;;;;5.23;5.03;;;;;;;;;;4970122;28;20430;-68
2023/06/11 05:58:01;;;;;;;8.30;4.10;;;;;;;;;;4957033;28;20433;-69
2023/06/11 06:00:28;;;;;;;4.43;4.30;;;;;;;;;;4958144;28;20488;-69
2023/06/11 06:02:54;;;;;;;5.13;4.93;;;;;;;;;;4958242;28;20422;-72
2023/06/11 06:05:20;;;;;;;5.50;5.30;;;;;;;;;;4958508;28;20426;-72
2023/06/11 06:07:46;;;;;;;5.37;5.07;;;;;;;;;;4958235;28;20958;-68
2023/06/11 06:10:12;;;;;;;4.53;4.33;;;;;;;;;;4958570;28;20762;-68
2023/06/11 06:12:38;;;;;;;4.80;4.70;;;;;;;;;;4958500;28;20535;-69
2023/06/11 06:15:04;;;;;;;4.53;4.30;;;;;;;;;;4957968;28;20772;-69
2023/06/11 06:17:30;;;;;;;5.27;4.90;;;;;;;;;;4958873;28;20486;-68
2023/06/11 06:19:56;;;;;;;4.43;4.33;;;;;;;;;;4958082;28;20930;-69
2023/06/11 06:22:22;;;;;;;4.60;4.50;;;;;;;;;;4957876;28;20493;-68
2023/06/11 06:24:48;;;;;;;5.50;5.30;;;;;;;;;;4957479;28;20433;-69
2023/06/11 06:27:14;;;;;;;4.90;4.70;;;;;;;;;;4957945;28;20425;-69
2023/06/11 06:29:40;;;;;;;5.60;5.40;;;;;;;;;;4957584;28;20231;-69
2023/06/11 06:32:06;;;;;;;5.70;5.30;;;;;;;;;;4957702;28;20417;-69
2023/06/11 06:34:32;;;;;;;5.50;5.10;;;;;;;;;;4957832;28;20465;-68
2023/06/11 06:36:58;;;;;;;5.90;5.47;;;;;;;;;;4957812;28;20446;-68
2023/06/11 06:39:24;;;;;;;5.10;4.90;;;;;;;;;;4957786;28;20923;-68
2023/06/11 06:41:50;;;;;;;4.53;4.37;;;;;;;;;;4957621;28;20478;-69
2023/06/11 06:44:16;;;;;;;4.73;4.50;;;;;;;;;;4957440;28;20429;-68
2023/06/11 06:46:42;;;;;;;4.53;4.27;;;;;;;;;;4957400;28;20419;-68
2023/06/11 06:49:08;;;;;;;5.03;4.83;;;;;;;;;;4957042;28;20442;-69
2023/06/11 06:51:36;;;;;;;4.70;4.50;;;;;;;;;;4957185;28;20806;-69
2023/06/11 06:54:02;;;;;;;4.47;4.37;;;;;;;;;;4957745;28;20415;-69
2023/06/11 06:56:28;;;;;;;3.93;3.83;;;;;;;;;;4956788;28;20482;-69
2023/06/11 06:58:54;;;;;;;4.10;3.93;;;;;;;;;;4957495;28;20899;-70
2023/06/11 07:01:20;;;;;;;4.60;4.20;;;;;;;;;;4956916;28;20215;-69
2023/06/11 07:03:46;;;;;;;5.80;5.33;;;;;;;;;;4957235;28;20427;-69
2023/06/11 07:06:12;;;;;;;4.40;4.30;;;;;;;;;;4956991;28;20423;-69
2023/06/11 07:08:39;;;;;;;7.67;3.43;;;;;;;;;;4955437;28;20450;-69
2023/06/11 07:11:05;;;;;;;4.57;4.37;;;;;;;;;;4956760;28;20433;-69
2023/06/11 07:13:31;;;;;;;3.40;3.30;;;;;;;;;;4956982;28;20423;-69
2023/06/11 07:15:57;;;;;;;5.20;5.00;;;;;;;;;;4956775;28;20426;-70
2023/06/11 07:18:25;;;;;;;4.50;4.40;;;;;;;;;;4956874;28;20418;-60
2023/06/11 07:20:51;;;;;;;4.83;4.63;;;;;;;;;;4956782;28;20482;-60
2023/06/11 07:23:17;;;;;;;3.73;3.63;;;;;;;;;;4956769;28;20915;-69
2023/06/11 07:25:43;;;;;;;5.57;5.40;;;;;;;;;;4956634;28;20427;-69
2023/06/11 07:28:09;;;;;;;4.57;4.47;;;;;;;;;;4956832;28;20418;-69
2023/06/11 07:30:35;;;;;;;4.43;4.33;;;;;;;;;;4956536;28;20891;-68
2023/06/11 07:33:01;;;;;;;5.60;5.30;;;;;;;;;;4956854;28;20814;-69
2023/06/11 07:35:27;;;;;;;5.30;4.97;;;;;;;;;;4956539;28;20427;-68
2023/06/11 07:37:54;;;;;;;4.87;4.77;;;;;;;;;;4956342;28;20454;-69
2023/06/11 07:40:21;;;;;;;5.27;5.00;;;;;;;;;;4956748;28;20465;-68
2023/06/11 07:42:47;;;;;;;4.20;4.10;;;;;;;;;;4956183;28;21008;-69
2023/06/11 07:45:13;;;;;;;5.67;5.30;;;;;;;;;;4956480;28;20430;-69
2023/06/11 07:47:40;;;;;;;4.43;4.33;;;;;;;;;;4956424;28;20445;-69
2023/06/11 07:50:06;;;;;;;4.80;4.57;;;;;;;;;;4956137;28;20800;-69
2023/06/11 07:52:32;;;;;;;5.13;4.93;;;;;;;;;;4955917;28;20476;-68
2023/06/11 07:54:58;;;;;;;4.50;4.37;;;;;;;;;;4956383;28;20887;-69
2023/06/11 07:57:25;;;;;;;3.90;3.80;;;;;;;;;;4956231;28;20431;-69
2023/06/11 07:59:51;;;;;;;4.53;4.23;;;;;;;;;;4956156;28;20419;-69
2023/06/11 08:02:18;;;;;;;5.33;5.13;;;;;;;;;;4955779;28;20970;-69
2023/06/11 08:04:43;;;;;;;3.80;3.80;;;;;;;;;;4955918;28;20415;-69
2023/06/11 08:07:10;;;;;;;4.40;4.17;;;;;;;;;;4956226;28;20876;-69
2023/06/11 08:09:36;;;;;;;4.57;4.47;;;;;;;;;;4955836;28;20403;-69
2023/06/11 08:12:03;;;;;;;4.80;4.70;;;;;;;;;;4955746;28;20419;-69
2023/06/11 08:14:29;;;;;;;3.67;3.60;;;;;;;;;;4955922;28;20426;-69
2023/06/11 08:16:55;;;;;;;5.23;4.90;;;;;;;;;;4955855;28;20411;-69
2023/06/11 08:19:21;;;;;;;3.70;3.60;;;;;;;;;;4956032;28;20418;-69
2023/06/11 08:21:47;;;;;;;4.07;3.80;;;;;;;;;;4955669;28;20490;-69
2023/06/11 08:24:13;;;;;;;4.77;4.63;;;;;;;;;;4955435;28;20422;-68
2023/06/11 08:26:39;;;;;;;5.63;4.27;;;;;;;;;;4955716;28;20908;-69
2023/06/11 08:29:05;;;;;;;4.53;4.33;;;;;;;;;;4955817;28;20434;-69
2023/06/11 08:31:32;;;;;;;3.83;3.63;;;;;;;;;;4955621;28;20487;-69
2023/06/11 08:33:58;;;;;;;4.23;4.13;;;;;;;;;;4955626;28;20437;-68
2023/06/11 08:36:26;;;;;;;4.80;4.70;;;;;;;;;;4955390;28;20422;-70
2023/06/11 08:38:52;;;;;;;4.63;4.27;;;;;;;;;;4955262;28;20422;-70
2023/06/11 08:41:18;;;;;;;4.70;4.50;;;;;;;;;;4955460;28;20585;-71
2023/06/11 08:43:44;;;;;;;3.70;3.60;;;;;;;;;;4955335;28;20477;-69
2023/06/11 08:46:14;;;;;;;4.10;3.80;;;;;;;;;;4955350;28;20434;-68
2023/06/11 08:48:42;;;;;;;5.00;4.80;;;;;;;;;;4955939;28;20423;-69
2023/06/11 08:51:09;;;;;;;3.97;3.87;;;;;;;;;;4955110;28;20474;-69
2023/06/11 08:53:36;;;;;;;6.00;4.43;;;;;;;;;;4955437;28;20435;-69
2023/06/11 08:56:02;;;;;;;4.30;4.07;;;;;;;;;;4955652;28;20751;-68
2023/06/11 08:58:31;;;;;;;4.73;4.53;;;;;;;;;;4955049;28;20855;-70
2023/06/11 09:00:58;;;;;;;4.10;4.07;;;;;;;;;;4954725;28;20529;-69
2023/06/11 09:03:25;;;;;;;3.80;3.50;;;;;;;;;;4954957;28;20506;-68
2023/06/11 09:05:51;;;;;;;4.60;4.13;;;;;;;;;;4955219;28;20533;-69
2023/06/11 09:08:17;;;;;;;3.77;3.67;;;;;;;;;;4955113;28;20430;-62
2023/06/11 09:10:49;;;;;;;4.27;4.00;;;;;;;;;;4955168;28;20431;-69
2023/06/11 09:13:16;;;;;;;4.20;4.07;;;;;;;;;;4954635;28;20182;-70
2023/06/11 09:15:49;;;;;;;4.73;3.67;;;;;;;;;;4954886;28;20417;-69
2023/06/11 09:18:25;;;;;;;3.30;3.30;;;;;;;;;;4955037;28;20477;-69
2023/06/11 09:20:56;;;;;;;4.60;4.33;;;;;;;;;;4954688;28;20470;-69
2023/06/11 09:23:25;;;;;;;3.90;3.80;;;;;;;;;;4954588;28;20423;-69
2023/06/11 09:25:51;;;;;;;4.13;4.03;;;;;;;;;;4954928;28;20514;-69
2023/06/11 09:28:17;;;;;;;3.87;3.73;;;;;;;;;;4954691;28;20562;-68
2023/06/11 09:30:52;;;;;;;4.37;4.27;;;;;;;;;;4954629;28;20455;-69
2023/06/11 09:33:18;;;;;;;3.97;3.87;;;;;;;;;;4957528;28;20424;-69
2023/06/11 09:35:45;;;;;;;4.00;3.90;;;;;;;;;;4958775;28;20510;-71
2023/06/11 09:38:15;;;;;;;4.53;4.43;;;;;;;;;;4958440;28;20570;-68
2023/06/11 09:40:44;;;;;;;3.57;3.50;;;;;;;;;;4958752;28;20454;-68
2023/06/11 09:43:10;;;;;;;4.50;4.40;;;;;;;;;;4958417;28;20423;-69
2023/06/11 09:45:38;;;;;;;7.00;4.43;;;;;;;;;;4958855;28;20435;-69
2023/06/11 09:48:04;;;;;;;4.13;4.03;;;;;;;;;;4958573;28;20419;-69
2023/06/11 09:50:33;;;;;;;4.80;4.50;;;;;;;;;;4958349;28;20429;-69
2023/06/11 09:53:02;;;;;;;3.70;3.60;;;;;;;;;;4958273;28;20476;-69
2023/06/11 09:55:30;;;;;;;4.20;4.10;;;;;;;;;;4958052;28;20947;-69
2023/06/11 09:57:56;;;;;;;4.23;4.13;;;;;;;;;;4957930;28;20426;-69
2023/06/11 10:00:22;;;;;;;4.37;4.27;;;;;;;;;;4958055;28;20528;-69
2023/06/11 10:02:48;;;;;;;3.83;3.73;;;;;;;;;;4957938;28;20431;-69
2023/06/11 10:05:14;;;;;;;4.50;3.40;;;;;;;;;;4957891;28;20421;-70
2023/06/11 10:07:43;;;;;;;3.80;3.67;;;;;;;;;;4957850;28;20430;-69
2023/06/11 10:10:10;;;;;;;4.23;3.90;;;;;;;;;;4958304;28;20446;-69
2023/06/11 10:12:37;;;;;;;4.57;4.37;;;;;;;;;;4957847;28;20907;-69
2023/06/11 10:15:05;;;;;;;3.83;3.73;;;;;;;;;;4957903;28;20419;-69
2023/06/11 10:17:32;;;;;;;4.37;4.27;;;;;;;;;;4957789;28;20430;-70
2023/06/11 10:19:58;;;;;;;4.00;3.90;;;;;;;;;;4957843;28;20434;-69
2023/06/11 10:22:34;;;;;;;4.00;3.80;;;;;;;;;;4958264;28;20486;-70
2023/06/11 10:25:00;;;;;;;4.23;4.03;;;;;;;;;;4958118;28;20454;-68
2023/06/11 10:27:37;;;;;;;3.90;3.70;;;;;;;;;;4957763;28;20411;-69
2023/06/11 10:30:04;;;;;;;4.33;4.13;;;;;;;;;;4957657;28;20426;-68
2023/06/11 10:32:30;;;;;;;4.87;4.67;;;;;;;;;;4958046;28;20423;-68
2023/06/11 10:34:57;;;;;;;3.90;3.80;;;;;;;;;;4957694;28;20423;-69
2023/06/11 10:37:32;;;;;;;4.10;4.00;;;;;;;;;;4957903;28;20462;-69
2023/06/11 10:39:58;;;;;;;4.63;4.43;;;;;;;;;;4957714;28;20575;-69
2023/06/11 10:42:36;;;;;;;8.10;4.70;;;;;;;;;;4957692;28;20478;-72
2023/06/11 10:45:09;;;;;;;5.70;5.17;;;;;;;;;;4972206;28;20813;-70
2023/06/11 10:47:44;;;;;;;3.60;3.50;;;;;;;;;;4957542;28;20431;-69
2023/06/11 10:50:11;;;;;;;4.40;4.30;;;;;;;;;;4957332;28;20765;-69
2023/06/11 10:52:48;;;;;;;4.67;4.57;;;;;;;;;;4957180;28;20486;-68
2023/06/11 10:55:16;;;;;;;5.00;4.70;;;;;;;;;;4957502;28;20541;-69
2023/06/11 10:57:42;;;;;;;4.33;3.90;;;;;;;;;;4957447;28;20431;-69
2023/06/11 11:00:09;;;;;;;4.10;4.00;;;;;;;;;;4957213;28;20482;-69
2023/06/11 11:02:35;;;;;;;4.00;3.90;;;;;;;;;;4957421;28;20438;-68
2023/06/11 11:05:01;;;;;;;3.90;3.77;;;;;;;;;;4957058;28;20916;-69
2023/06/11 11:07:33;;;;;;;3.97;3.87;;;;;;;;;;4956949;28;20845;-69
2023/06/11 11:10:00;;;;;;;4.40;4.00;;;;;;;;;;4957281;28;20864;-69
2023/06/11 11:12:26;;;;;;;3.80;3.70;;;;;;;;;;4957100;28;20434;-69
2023/06/11 11:14:51;;;;;;;5.70;3.60;;;;;;;;;;4956832;28;20423;-71
2023/06/11 11:17:19;;;;;;;4.50;4.40;;;;;;;;;;4956863;28;20880;-69
2023/06/11 11:19:45;;;;;;;3.77;3.63;;;;;;;;;;4957027;28;20535;-70
2023/06/11 11:22:14;;;;;;;7.13;3.50;;;;;;;;;;4956665;28;20967;-69
2023/06/11 11:24:40;;;;;;;4.20;3.30;;;;;;;;;;4956616;28;20447;-69
2023/06/11 11:27:06;;;;;;;3.13;3.13;;;;;;;;;;4957109;28;20970;-69
2023/06/11 11:29:32;;;;;;;4.47;4.37;;;;;;;;;;4956786;28;20518;-69
2023/06/11 11:31:59;;;;;;;3.93;3.83;;;;;;;;;;4956802;28;20881;-69
2023/06/11 11:34:27;;;;;;;3.30;3.30;;;;;;;;;;4956387;28;20419;-69
2023/06/11 11:36:57;;;;;;;3.27;3.17;;;;;;;;;;4956580;28;20431;-69
2023/06/11 11:39:24;;;;;;;3.07;3.07;;;;;;;;;;4956756;28;20494;-70
2023/06/11 11:41:50;;;;;;;3.70;3.60;;;;;;;;;;4956504;28;20566;-71
2023/06/11 11:44:17;;;;;;;6.10;3.60;;;;;;;;;;4956191;28;20938;-71
2023/06/11 11:46:43;;;;;;;3.37;3.37;;;;;;;;;;4956771;28;20503;-69
2023/06/11 11:49:10;;;;;;;4.00;3.90;;;;;;;;;;4956419;28;20484;-68
2023/06/11 11:51:51;;;;;;;3.27;3.17;;;;;;;;;;4956319;28;20876;-70
2023/06/11 11:54:18;;;;;;;3.40;3.40;;;;;;;;;;4956116;28;20403;-69
2023/06/11 11:56:44;;;;;;;3.50;3.40;;;;;;;;;;4956007;28;20431;-69
2023/06/11 11:59:20;;;;;;;3.07;3.07;;;;;;;;;;4955948;28;20872;-69
2023/06/11 12:02:01;;;;;;;3.33;3.23;;;;;;;;;;4956091;28;20521;-68
2023/06/11 12:04:43;;;;;;;3.10;3.00;;;;;;;;;;4956202;28;20430;-69
2023/06/11 12:07:17;;;;;;;2.53;2.53;;;;;;;;;;4955807;28;20937;-68
2023/06/11 12:09:44;;;;;;;3.30;3.10;;;;;;;;;;4956146;28;20774;-68
2023/06/11 12:12:10;;;;;;;3.47;3.27;;;;;;;;;;4956239;28;20443;-69
2023/06/11 12:14:36;;;;;;;4.50;2.33;;;;;;;;;;4955960;28;20431;-69
2023/06/11 12:17:02;;;;;;;3.47;2.67;;;;;;;;;;4955615;28;20443;-69
2023/06/11 12:19:29;;;;;;;2.30;2.30;;;;;;;;;;4955608;28;20458;-64
2023/06/11 12:21:55;;;;;;;2.83;2.83;;;;;;;;;;4955763;28;20475;-69
2023/06/11 12:24:22;;;;;;;2.37;2.37;;;;;;;;;;4955889;28;20423;-69
2023/06/11 12:26:48;;;;;;;2.43;2.37;;;;;;;;;;4956041;28;20427;-69
2023/06/11 12:29:15;;;;;;;3.03;2.77;;;;;;;;;;4955492;28;20425;-69
2023/06/11 12:31:41;;;;;;;3.28;2.78;;;;;;;;;;4954995;28;20432;-78
2023/06/11 12:34:09;;;;;;;33.50;6.23;;;;;;;;;;4955566;28;20179;-78
2023/06/11 12:36:36;;;;;;;2.87;2.77;;;;;;;;;;4955586;28;20419;-74
2023/06/11 12:39:04;;;;;;;4.20;3.80;;;;;;;;;;4955299;28;20919;-73
2023/06/11 12:41:31;;;;;;;2.87;2.77;;;;;;;;;;4955491;28;20481;-79
2023/06/11 12:43:57;;;;;;;2.30;2.20;;;;;;;;;;4955571;28;20421;-70
2023/06/11 12:46:23;;;;;;;5.43;3.03;;;;;;;;;;4955384;28;20427;-71
2023/06/11 12:48:49;;;;;;;8.13;3.13;;;;;;;;;;4955228;28;20415;-68
2023/06/11 12:51:15;;;;;;;3.07;2.87;;;;;;;;;;4954975;28;20462;-69
2023/06/11 12:53:41;;;;;;;3.20;3.07;;;;;;;;;;4969652;28;20427;-69
2023/06/11 12:56:07;;;;;;;3.77;3.67;;;;;;;;;;4954994;28;20820;-68
2023/06/11 12:58:33;;;;;;;2.67;2.47;;;;;;;;;;4955115;28;20434;-69
2023/06/11 13:00:58;;;;;;;2.30;2.20;;;;;;;;;;4954916;28;20470;-70
2023/06/11 13:03:24;;;;;;;9.73;3.47;;;;;;;;;;4954850;28;20195;-69
2023/06/11 13:05:50;;;;;;;5.70;2.67;;;;;;;;;;4954714;28;20190;-69
2023/06/11 13:11:20;;;;;;;2.85;2.72;;;;;;;;;;4953817;29;20419;-69
2023/06/11 13:13:46;;;;;;;3.47;2.67;;;;;;;;;;4954891;28;20175;-69
2023/06/11 13:16:12;;;;;;;2.70;2.50;;;;;;;;;;4955055;28;20435;-69
2023/06/11 13:18:38;;;;;;;3.13;2.93;;;;;;;;;;4954845;28;20427;-69
2023/06/11 13:21:05;;;;;;;2.37;2.37;;;;;;;;;;4954643;28;20481;-69
2023/06/11 13:23:31;;;;;;;3.10;3.10;;;;;;;;;;4954804;28;20438;-69
2023/06/11 13:25:57;;;;;;;2.90;2.80;;;;;;;;;;4969474;28;20434;-70
2023/06/11 13:31:27;;;;;;;11.93;3.00;;;;;;;;;;4954801;29;20449;-69
2023/06/11 13:33:53;;;;;;;2.27;2.27;;;;;;;;;;4954560;28;20439;-70
2023/06/11 13:36:19;;;;;;;2.60;2.60;;;;;;;;;;4969378;28;20439;-70
2023/06/11 13:38:45;;;;;;;2.83;2.83;;;;;;;;;;4954676;28;20471;-70
2023/06/11 13:41:11;;;;;;;7.33;2.50;;;;;;;;;;4954589;28;20522;-70
2023/06/11 13:43:37;;;;;;;3.67;3.40;;;;;;;;;;4954774;28;20422;-70
2023/06/11 13:46:03;;;;;;;2.60;2.60;;;;;;;;;;4954735;28;20931;-69
2023/06/11 13:48:29;;;;;;;6.50;2.67;;;;;;;;;;4969104;28;20454;-71
2023/06/11 13:50:56;;;;;;;4.50;3.27;;;;;;;;;;4954176;28;20998;-68
2023/06/11 13:53:22;;;;;;;3.13;2.80;;;;;;;;;;4955441;28;20403;-69
2023/06/11 13:55:48;;;;;;;3.13;2.80;;;;;;;;;;4954737;28;20830;-69
2023/06/11 13:58:15;;;;;;;3.53;3.33;;;;;;;;;;4954951;28;20915;-70
2023/06/11 14:00:41;;;;;;;3.50;3.40;;;;;;;;;;4953065;29;20462;-69
2023/06/11 14:03:07;;;;;;;2.93;2.93;;;;;;;;;;4954343;28;20491;-69
2023/06/11 14:05:33;;;;;;;3.67;3.40;;;;;;;;;;4954199;28;20513;-69
2023/06/11 14:07:59;;;;;;;3.23;2.33;;;;;;;;;;4954291;28;20482;-69
2023/06/11 14:10:26;;;;;;;5.40;2.93;;;;;;;;;;4955133;28;20415;-69
2023/06/11 14:12:52;;;;;;;3.10;3.00;;;;;;;;;;4954558;28;20437;-69
2023/06/11 14:15:18;;;;;;;3.00;2.97;;;;;;;;;;4954257;28;20506;-69
2023/06/11 14:17:45;;;;;;;4.10;3.00;;;;;;;;;;4954490;28;20497;-69
2023/06/11 14:20:11;;;;;;;2.93;2.93;;;;;;;;;;4958039;28;20469;-70
2023/06/11 14:22:37;;;;;;;2.40;2.37;;;;;;;;;;4957693;28;20561;-69
2023/06/11 14:25:03;;;;;;;2.83;2.83;;;;;;;;;;4957972;28;20871;-70
2023/06/11 14:27:30;;;;;;;6.20;3.00;;;;;;;;;;4957997;28;20483;-69
2023/06/11 14:29:56;;;;;;;2.83;2.83;;;;;;;;;;4957889;28;20427;-69
2023/06/11 14:32:23;;;;;;;2.73;2.70;;;;;;;;;;4957592;28;20415;-70
2023/06/11 14:34:49;;;;;;;2.30;2.20;;;;;;;;;;4957519;28;20415;-70
2023/06/11 14:37:15;;;;;;;2.70;2.70;;;;;;;;;;4957387;28;20762;-70
2023/06/11 14:39:42;;;;;;;2.80;2.60;;;;;;;;;;4957438;28;20419;-69
2023/06/11 14:42:08;;;;;;;2.40;2.30;;;;;;;;;;4957906;28;20466;-69
2023/06/11 14:44:34;;;;;;;2.87;2.87;;;;;;;;;;4957173;28;20534;-68
2023/06/11 14:47:00;;;;;;;2.53;2.50;;;;;;;;;;4957374;28;20455;-68
2023/06/11 14:49:26;;;;;;;2.83;2.50;;;;;;;;;;4957055;28;20914;-68
2023/06/11 14:51:52;;;;;;;2.73;2.63;;;;;;;;;;4956872;28;20474;-68